sensor_id;sensor_type;location;lat;lon;timestamp;pressure;altitude;pressure_sealevel;temperature;humidity
32452;BME280;45528;52.102;5.242;2023-03-25T00:00:09;99691.0;;;15.77;54.57
32452;BME280;45528;52.102;5.242;2023-03-25T00:01:46;99674.0;;;15.62;54.86
32452;BME280;45528;52.102;5.242;2023-03-25T00:05:00;99682.0;;;15.5;54.82
32452;BME280;45528;52.102;5.242;2023-03-25T00:06:36;99692.0;;;15.75;54.27
32452;BME280;45528;52.102;5.242;2023-03-25T00:08:12;99692.0;;;15.23;55.64
32452;BME280;45528;52.102;5.242;2023-03-25T00:09:48;99689.0;;;15.69;54.65
32452;BME280;45528;52.102;5.242;2023-03-25T00:13:00;99690.0;;;15.13;55.68
32452;BME280;45528;52.102;5.242;2023-03-25T00:14:36;99675.0;;;15.31;55.54
32452;BME280;45528;52.102;5.242;2023-03-25T00:16:13;99687.0;;;15.5;55.06
32452;BME280;45528;52.102;5.242;2023-03-25T00:19:26;99693.0;;;15.12;56.23
32452;BME280;45528;52.102;5.242;2023-03-25T00:21:05;99685.0;;;15.4;55.5
32452;BME280;45528;52.102;5.242;2023-03-25T00:22:41;99684.0;;;15.58;55.33
32452;BME280;45528;52.102;5.242;2023-03-25T00:25:54;99700.0;;;15.36;55.44
32452;BME280;45528;52.102;5.242;2023-03-25T00:27:30;99684.0;;;15.47;55.33
32452;BME280;45528;52.102;5.242;2023-03-25T00:29:06;99686.0;;;15.53;55.12
32452;BME280;45528;52.102;5.242;2023-03-25T00:30:43;99681.0;;;15.21;55.75
32452;BME280;45528;52.102;5.242;2023-03-25T00:33:55;99680.0;;;15.35;55.34
32452;BME280;45528;52.102;5.242;2023-03-25T00:35:31;99683.0;;;15.05;56.3
32452;BME280;45528;52.102;5.242;2023-03-25T00:37:08;99689.0;;;15.62;54.93
32452;BME280;45528;52.102;5.242;2023-03-25T00:40:24;99684.0;;;15.62;54.88
32452;BME280;45528;52.102;5.242;2023-03-25T00:42:01;99688.0;;;15.62;54.75
32452;BME280;45528;52.102;5.242;2023-03-25T00:43:37;99681.0;;;15.57;54.82
32452;BME280;45528;52.102;5.242;2023-03-25T00:46:49;99682.0;;;15.67;54.28
32452;BME280;45528;52.102;5.242;2023-03-25T00:48:25;99681.0;;;15.44;54.95
32452;BME280;45528;52.102;5.242;2023-03-25T00:50:02;99683.0;;;15.3;55.21
32452;BME280;45528;52.102;5.242;2023-03-25T00:51:38;99682.0;;;15.24;55.31
32452;BME280;45528;52.102;5.242;2023-03-25T00:54:51;99687.0;;;15.75;54.48
32452;BME280;45528;52.102;5.242;2023-03-25T00:56:28;99690.0;;;15.78;54.0
32452;BME280;45528;52.102;5.242;2023-03-25T00:58:04;99689.0;;;15.1;54.9
32452;BME280;45528;52.102;5.242;2023-03-25T01:01:18;99688.0;;;15.51;54.3
32452;BME280;45528;52.102;5.242;2023-03-25T01:02:55;99688.0;;;15.66;54.14
32452;BME280;45528;52.102;5.242;2023-03-25T01:04:32;99680.0;;;15.53;54.46
32452;BME280;45528;52.102;5.242;2023-03-25T01:07:46;99685.0;;;15.02;54.86
32452;BME280;45528;52.102;5.242;2023-03-25T01:09:22;99683.0;;;15.21;54.56
32452;BME280;45528;52.102;5.242;2023-03-25T01:10:58;99684.0;;;15.22;54.53
32452;BME280;45528;52.102;5.242;2023-03-25T01:12:34;99686.0;;;15.55;53.85
32452;BME280;45528;52.102;5.242;2023-03-25T01:15:50;99680.0;;;15.3;54.25
32452;BME280;45528;52.102;5.242;2023-03-25T01:17:26;99685.0;;;15.62;54.01
32452;BME280;45528;52.102;5.242;2023-03-25T01:19:02;99678.0;;;15.58;54.05
32452;BME280;45528;52.102;5.242;2023-03-25T01:22:15;99684.0;;;15.23;54.99
32452;BME280;45528;52.102;5.242;2023-03-25T01:23:51;99680.0;;;15.44;54.99
32452;BME280;45528;52.102;5.242;2023-03-25T01:25:27;99674.0;;;15.57;54.83
32452;BME280;45528;52.102;5.242;2023-03-25T01:28:40;99685.0;;;15.01;56.69
32452;BME280;45528;52.102;5.242;2023-03-25T01:30:17;99676.0;;;15.28;55.96
32452;BME280;45528;52.102;5.242;2023-03-25T01:31:53;99680.0;;;15.54;55.33
32452;BME280;45528;52.102;5.242;2023-03-25T01:33:29;99671.0;;;15.34;55.87
32452;BME280;45528;52.102;5.242;2023-03-25T01:36:44;99668.0;;;15.1;56.08
32452;BME280;45528;52.102;5.242;2023-03-25T01:38:20;99668.0;;;15.31;55.99
32452;BME280;45528;52.102;5.242;2023-03-25T01:39:55;99667.0;;;15.33;55.74
32452;BME280;45528;52.102;5.242;2023-03-25T01:43:10;99669.0;;;15.28;55.87
32452;BME280;45528;52.102;5.242;2023-03-25T01:45:51;99669.0;;;15.05;56.36
32452;BME280;45528;52.102;5.242;2023-03-25T01:47:27;99644.0;;;15.17;56.03
32452;BME280;45528;52.102;5.242;2023-03-25T01:49:07;99675.0;;;14.76;57.75
32452;BME280;45528;52.102;5.242;2023-03-25T01:50:48;99670.0;;;14.83;57.9
32452;BME280;45528;52.102;5.242;2023-03-25T01:52:31;99667.0;;;15.0;58.52
32452;BME280;45528;52.102;5.242;2023-03-25T01:55:44;99653.0;;;14.65;59.01
32452;BME280;45528;52.102;5.242;2023-03-25T01:57:22;99665.0;;;14.8;59.76
32452;BME280;45528;52.102;5.242;2023-03-25T01:59:00;99665.0;;;14.8;59.64
32452;BME280;45528;52.102;5.242;2023-03-25T02:00:41;99672.0;;;14.89;58.99
32452;BME280;45528;52.102;5.242;2023-03-25T02:03:57;99669.0;;;14.6;59.65
32452;BME280;45528;52.102;5.242;2023-03-25T02:05:38;99664.0;;;14.68;59.46
32452;BME280;45528;52.102;5.242;2023-03-25T02:07:18;99665.0;;;14.59;59.82
32452;BME280;45528;52.102;5.242;2023-03-25T02:10:33;99671.0;;;14.79;59.42
32452;BME280;45528;52.102;5.242;2023-03-25T02:12:10;99670.0;;;14.31;60.32
32452;BME280;45528;52.102;5.242;2023-03-25T02:13:46;99664.0;;;14.31;60.79
32452;BME280;45528;52.102;5.242;2023-03-25T02:15:23;99664.0;;;14.33;61.11
32452;BME280;45528;52.102;5.242;2023-03-25T02:18:54;99668.0;;;14.6;60.3
32452;BME280;45528;52.102;5.242;2023-03-25T02:21:05;99667.0;;;14.58;60.45
32452;BME280;45528;52.102;5.242;2023-03-25T02:27:50;99670.0;;;14.79;60.88
32452;BME280;45528;52.102;5.242;2023-03-25T02:29:46;99668.0;;;14.73;60.79
32452;BME280;45528;52.102;5.242;2023-03-25T02:33:03;99669.0;;;14.49;61.31
32452;BME280;45528;52.102;5.242;2023-03-25T02:35:56;99668.0;;;14.82;60.37
32452;BME280;45528;52.102;5.242;2023-03-25T02:38:18;99673.0;;;14.9;60.34
32452;BME280;45528;52.102;5.242;2023-03-25T02:39:56;99665.0;;;15.02;59.93
32452;BME280;45528;52.102;5.242;2023-03-25T02:41:39;99659.0;;;14.98;59.87
32452;BME280;45528;52.102;5.242;2023-03-25T02:43:22;99655.0;;;15.16;59.45
32452;BME280;45528;52.102;5.242;2023-03-25T02:45:04;99659.0;;;15.04;59.71
32452;BME280;45528;52.102;5.242;2023-03-25T02:46:46;99660.0;;;15.08;59.52
32452;BME280;45528;52.102;5.242;2023-03-25T02:50:22;99652.0;;;14.7;60.23
32452;BME280;45528;52.102;5.242;2023-03-25T02:52:04;99658.0;;;14.99;59.53
32452;BME280;45528;52.102;5.242;2023-03-25T02:53:45;99663.0;;;14.59;60.54
32452;BME280;45528;52.102;5.242;2023-03-25T02:55:24;99655.0;;;15.11;58.99
32452;BME280;45528;52.102;5.242;2023-03-25T02:58:43;99663.0;;;15.02;59.66
32452;BME280;45528;52.102;5.242;2023-03-25T03:00:23;99644.0;;;15.05;59.13
32452;BME280;45528;52.102;5.242;2023-03-25T03:02:04;99640.0;;;15.05;59.0
32452;BME280;45528;52.102;5.242;2023-03-25T03:03:42;99641.0;;;14.95;59.49
32452;BME280;45528;52.102;5.242;2023-03-25T03:06:59;99631.0;;;15.22;58.74
32452;BME280;45528;52.102;5.242;2023-03-25T03:08:48;99627.0;;;15.0;59.27
32452;BME280;45528;52.102;5.242;2023-03-25T03:11:24;99635.0;;;15.02;59.21
32452;BME280;45528;52.102;5.242;2023-03-25T03:13:09;99630.0;;;14.73;60.06
32452;BME280;45528;52.102;5.242;2023-03-25T03:15:00;99637.0;;;14.71;60.26
32452;BME280;45528;52.102;5.242;2023-03-25T03:16:46;99630.0;;;15.03;59.78
32452;BME280;45528;52.102;5.242;2023-03-25T03:18:34;99622.0;;;14.98;60.01
32452;BME280;45528;52.102;5.242;2023-03-25T03:20:25;99636.0;;;15.14;60.06
32452;BME280;45528;52.102;5.242;2023-03-25T03:24:01;99633.0;;;15.09;59.79
32452;BME280;45528;52.102;5.242;2023-03-25T03:25:46;99635.0;;;14.88;60.42
32452;BME280;45528;52.102;5.242;2023-03-25T03:27:28;99627.0;;;14.83;60.6
32452;BME280;45528;52.102;5.242;2023-03-25T03:29:11;99636.0;;;14.59;60.81
32452;BME280;45528;52.102;5.242;2023-03-25T03:30:54;99632.0;;;14.65;61.17
32452;BME280;45528;52.102;5.242;2023-03-25T03:34:21;99632.0;;;14.62;60.91
32452;BME280;45528;52.102;5.242;2023-03-25T03:36:05;99624.0;;;14.93;60.26
32452;BME280;45528;52.102;5.242;2023-03-25T03:37:46;99630.0;;;14.75;60.8
32452;BME280;45528;52.102;5.242;2023-03-25T03:39:27;99620.0;;;14.58;61.03
32452;BME280;45528;52.102;5.242;2023-03-25T03:41:09;99621.0;;;14.51;60.98
32452;BME280;45528;52.102;5.242;2023-03-25T03:44:32;99615.0;;;14.9;60.19
32452;BME280;45528;52.102;5.242;2023-03-25T03:46:15;99612.0;;;14.42;61.06
32452;BME280;45528;52.102;5.242;2023-03-25T03:47:55;99622.0;;;14.52;61.91
32452;BME280;45528;52.102;5.242;2023-03-25T03:49:37;99608.0;;;14.54;62.02
32452;BME280;45528;52.102;5.242;2023-03-25T03:53:03;99612.0;;;14.59;62.26
32452;BME280;45528;52.102;5.242;2023-03-25T03:54:44;99619.0;;;14.65;62.34
32452;BME280;45528;52.102;5.242;2023-03-25T03:56:25;99618.0;;;14.49;63.11
32452;BME280;45528;52.102;5.242;2023-03-25T03:58:08;99616.0;;;14.44;63.21
32452;BME280;45528;52.102;5.242;2023-03-25T04:01:34;99615.0;;;14.53;63.1
32452;BME280;45528;52.102;5.242;2023-03-25T04:03:18;99603.0;;;14.95;62.07
32452;BME280;45528;52.102;5.242;2023-03-25T04:04:55;99597.0;;;14.6;62.82
32452;BME280;45528;52.102;5.242;2023-03-25T04:06:34;99593.0;;;14.89;62.33
32452;BME280;45528;52.102;5.242;2023-03-25T04:08:16;99600.0;;;14.43;63.34
32452;BME280;45528;52.102;5.242;2023-03-25T04:11:49;99608.0;;;14.49;63.51
32452;BME280;45528;52.102;5.242;2023-03-25T04:13:35;99602.0;;;14.68;63.2
32452;BME280;45528;52.102;5.242;2023-03-25T04:15:17;99599.0;;;14.16;64.33
32452;BME280;45528;52.102;5.242;2023-03-25T04:16:54;99610.0;;;14.46;64.06
32452;BME280;45528;52.102;5.242;2023-03-25T04:20:08;99608.0;;;14.17;64.6
32452;BME280;45528;52.102;5.242;2023-03-25T04:21:46;99619.0;;;14.55;64.09
32452;BME280;45528;52.102;5.242;2023-03-25T04:23:22;99619.0;;;14.55;64.12
32452;BME280;45528;52.102;5.242;2023-03-25T04:24:58;99609.0;;;14.23;65.02
32452;BME280;45528;52.102;5.242;2023-03-25T04:28:11;99612.0;;;14.28;65.34
32452;BME280;45528;52.102;5.242;2023-03-25T04:29:47;99615.0;;;14.59;64.95
32452;BME280;45528;52.102;5.242;2023-03-25T04:31:24;99608.0;;;14.19;66.3
32452;BME280;45528;52.102;5.242;2023-03-25T04:34:36;99615.0;;;14.64;64.97
32452;BME280;45528;52.102;5.242;2023-03-25T04:36:13;99623.0;;;14.83;64.58
32452;BME280;45528;52.102;5.242;2023-03-25T04:37:50;99631.0;;;14.47;65.6
32452;BME280;45528;52.102;5.242;2023-03-25T04:41:02;99625.0;;;14.43;66.08
32452;BME280;45528;52.102;5.242;2023-03-25T04:42:38;99631.0;;;14.42;65.87
32452;BME280;45528;52.102;5.242;2023-03-25T04:44:14;99625.0;;;14.58;65.78
32452;BME280;45528;52.102;5.242;2023-03-25T04:47:26;99630.0;;;14.67;65.41
32452;BME280;45528;52.102;5.242;2023-03-25T04:49:03;99633.0;;;14.76;64.99
32452;BME280;45528;52.102;5.242;2023-03-25T04:50:40;99630.0;;;14.49;65.31
32452;BME280;45528;52.102;5.242;2023-03-25T04:52:16;99630.0;;;14.44;65.52
32452;BME280;45528;52.102;5.242;2023-03-25T04:55:28;99623.0;;;14.26;66.08
32452;BME280;45528;52.102;5.242;2023-03-25T04:57:04;99619.0;;;14.27;65.48
32452;BME280;45528;52.102;5.242;2023-03-25T04:58:41;99627.0;;;14.33;65.36
32452;BME280;45528;52.102;5.242;2023-03-25T05:01:56;99638.0;;;14.4;65.61
32452;BME280;45528;52.102;5.242;2023-03-25T05:03:32;99627.0;;;14.43;64.8
32452;BME280;45528;52.102;5.242;2023-03-25T05:05:09;99630.0;;;13.93;66.47
32452;BME280;45528;52.102;5.242;2023-03-25T05:08:24;99627.0;;;14.58;64.77
32452;BME280;45528;52.102;5.242;2023-03-25T05:10:00;99621.0;;;14.44;64.52
32452;BME280;45528;52.102;5.242;2023-03-25T05:11:37;99625.0;;;14.37;64.74
32452;BME280;45528;52.102;5.242;2023-03-25T05:13:16;99622.0;;;14.5;64.62
32452;BME280;45528;52.102;5.242;2023-03-25T05:16:28;99628.0;;;14.58;64.22
32452;BME280;45528;52.102;5.242;2023-03-25T05:18:05;99628.0;;;14.26;64.86
32452;BME280;45528;52.102;5.242;2023-03-25T05:19:42;99628.0;;;14.5;64.37
32452;BME280;45528;52.102;5.242;2023-03-25T05:22:54;99632.0;;;14.72;63.78
32452;BME280;45528;52.102;5.242;2023-03-25T05:24:31;99636.0;;;14.6;64.41
32452;BME280;45528;52.102;5.242;2023-03-25T05:26:07;99644.0;;;14.31;64.74
32452;BME280;45528;52.102;5.242;2023-03-25T05:27:44;99640.0;;;14.46;64.64
32452;BME280;45528;52.102;5.242;2023-03-25T05:30:56;99638.0;;;14.34;64.74
32452;BME280;45528;52.102;5.242;2023-03-25T05:32:32;99643.0;;;14.35;64.48
32452;BME280;45528;52.102;5.242;2023-03-25T05:34:08;99647.0;;;14.04;64.99
32452;BME280;45528;52.102;5.242;2023-03-25T05:37:22;99645.0;;;13.85;65.52
32452;BME280;45528;52.102;5.242;2023-03-25T05:38:58;99643.0;;;14.26;64.81
32452;BME280;45528;52.102;5.242;2023-03-25T05:40:34;99644.0;;;14.05;64.72
32452;BME280;45528;52.102;5.242;2023-03-25T05:43:46;99655.0;;;14.09;65.08
32452;BME280;45528;52.102;5.242;2023-03-25T05:45:22;99646.0;;;14.33;64.19
32452;BME280;45528;52.102;5.242;2023-03-25T05:46:58;99650.0;;;14.05;65.05
32452;BME280;45528;52.102;5.242;2023-03-25T05:50:11;99657.0;;;13.93;64.8
32452;BME280;45528;52.102;5.242;2023-03-25T05:51:48;99657.0;;;14.41;63.76
32452;BME280;45528;52.102;5.242;2023-03-25T05:53:24;99664.0;;;14.43;63.49
32452;BME280;45528;52.102;5.242;2023-03-25T05:55:00;99666.0;;;14.18;63.8
32452;BME280;45528;52.102;5.242;2023-03-25T05:58:12;99656.0;;;13.94;64.08
32452;BME280;45528;52.102;5.242;2023-03-25T05:59:49;99663.0;;;14.21;62.92
32452;BME280;45528;52.102;5.242;2023-03-25T06:01:25;99666.0;;;14.23;62.78
32452;BME280;45528;52.102;5.242;2023-03-25T06:04:37;99661.0;;;13.86;63.35
32452;BME280;45528;52.102;5.242;2023-03-25T06:06:14;99660.0;;;13.86;63.42
32452;BME280;45528;52.102;5.242;2023-03-25T06:07:51;99668.0;;;14.03;63.0
32452;BME280;45528;52.102;5.242;2023-03-25T06:11:04;99669.0;;;14.08;62.59
32452;BME280;45528;52.102;5.242;2023-03-25T06:12:40;99666.0;;;14.08;62.92
32452;BME280;45528;52.102;5.242;2023-03-25T06:14:16;99668.0;;;14.55;61.57
32452;BME280;45528;52.102;5.242;2023-03-25T06:15:52;99670.0;;;14.49;61.77
32452;BME280;45528;52.102;5.242;2023-03-25T06:19:04;99666.0;;;14.39;62.32
32452;BME280;45528;52.102;5.242;2023-03-25T06:20:41;99661.0;;;14.59;61.97
32452;BME280;45528;52.102;5.242;2023-03-25T06:22:17;99664.0;;;14.42;62.16
32452;BME280;45528;52.102;5.242;2023-03-25T06:25:32;99665.0;;;14.78;61.48
32452;BME280;45528;52.102;5.242;2023-03-25T06:27:12;99665.0;;;14.48;62.15
32452;BME280;45528;52.102;5.242;2023-03-25T06:28:49;99657.0;;;14.25;62.88
32452;BME280;45528;52.102;5.242;2023-03-25T06:32:01;99662.0;;;14.54;61.89
32452;BME280;45528;52.102;5.242;2023-03-25T06:33:38;99673.0;;;14.39;63.02
32452;BME280;45528;52.102;5.242;2023-03-25T06:35:16;99662.0;;;14.38;63.26
32452;BME280;45528;52.102;5.242;2023-03-25T06:36:52;99663.0;;;13.99;64.66
32452;BME280;45528;52.102;5.242;2023-03-25T06:40:05;99678.0;;;14.52;63.78
32452;BME280;45528;52.102;5.242;2023-03-25T06:41:43;99680.0;;;14.38;63.95
32452;BME280;45528;52.102;5.242;2023-03-25T06:43:19;99678.0;;;14.42;64.17
32452;BME280;45528;52.102;5.242;2023-03-25T06:46:32;99682.0;;;14.19;65.09
32452;BME280;45528;52.102;5.242;2023-03-25T06:48:08;99692.0;;;14.13;65.1
32452;BME280;45528;52.102;5.242;2023-03-25T06:49:44;99683.0;;;14.06;65.25
32452;BME280;45528;52.102;5.242;2023-03-25T06:52:56;99691.0;;;13.98;66.02
32452;BME280;45528;52.102;5.242;2023-03-25T06:54:33;99689.0;;;14.25;65.34
32452;BME280;45528;52.102;5.242;2023-03-25T06:56:09;99688.0;;;14.07;65.66
32452;BME280;45528;52.102;5.242;2023-03-25T06:57:46;99692.0;;;14.0;66.02
32452;BME280;45528;52.102;5.242;2023-03-25T07:00:58;99690.0;;;14.26;65.19
32452;BME280;45528;52.102;5.242;2023-03-25T07:02:34;99686.0;;;14.1;64.84
32452;BME280;45528;52.102;5.242;2023-03-25T07:04:10;99695.0;;;14.23;64.92
32452;BME280;45528;52.102;5.242;2023-03-25T07:07:24;99696.0;;;14.39;64.81
32452;BME280;45528;52.102;5.242;2023-03-25T07:09:01;99702.0;;;14.29;65.22
32452;BME280;45528;52.102;5.242;2023-03-25T07:10:37;99697.0;;;14.14;65.08
32452;BME280;45528;52.102;5.242;2023-03-25T07:13:49;99686.0;;;13.85;65.56
32452;BME280;45528;52.102;5.242;2023-03-25T07:15:25;99699.0;;;14.19;65.49
32452;BME280;45528;52.102;5.242;2023-03-25T07:17:01;99696.0;;;14.07;65.94
32452;BME280;45528;52.102;5.242;2023-03-25T07:18:37;99691.0;;;14.12;65.47
32452;BME280;45528;52.102;5.242;2023-03-25T07:21:51;99695.0;;;14.22;65.52
32452;BME280;45528;52.102;5.242;2023-03-25T07:23:27;99703.0;;;14.33;65.3
32452;BME280;45528;52.102;5.242;2023-03-25T07:25:04;99703.0;;;14.22;65.41
32452;BME280;45528;52.102;5.242;2023-03-25T07:28:17;99702.0;;;14.0;66.16
32452;BME280;45528;52.102;5.242;2023-03-25T07:29:54;99709.0;;;14.25;65.38
32452;BME280;45528;52.102;5.242;2023-03-25T07:31:30;99695.0;;;14.05;66.03
32452;BME280;45528;52.102;5.242;2023-03-25T07:34:43;99706.0;;;14.32;64.92
32452;BME280;45528;52.102;5.242;2023-03-25T07:36:19;99699.0;;;14.42;65.09
32452;BME280;45528;52.102;5.242;2023-03-25T07:37:55;99710.0;;;14.3;65.37
32452;BME280;45528;52.102;5.242;2023-03-25T07:41:09;99707.0;;;14.22;65.6
32452;BME280;45528;52.102;5.242;2023-03-25T07:42:47;99710.0;;;14.34;65.19
32452;BME280;45528;52.102;5.242;2023-03-25T07:44:23;99703.0;;;14.67;64.55
32452;BME280;45528;52.102;5.242;2023-03-25T07:45:59;99708.0;;;14.63;64.3
32452;BME280;45528;52.102;5.242;2023-03-25T07:49:12;99700.0;;;14.4;64.58
32452;BME280;45528;52.102;5.242;2023-03-25T07:50:51;99707.0;;;14.13;64.91
32452;BME280;45528;52.102;5.242;2023-03-25T07:52:27;99721.0;;;14.25;65.06
32452;BME280;45528;52.102;5.242;2023-03-25T07:55:40;99709.0;;;14.56;64.41
32452;BME280;45528;52.102;5.242;2023-03-25T07:57:16;99719.0;;;14.49;64.2
32452;BME280;45528;52.102;5.242;2023-03-25T07:58:52;99712.0;;;14.45;64.52
32452;BME280;45528;52.102;5.242;2023-03-25T08:00:28;99713.0;;;14.43;64.1
32452;BME280;45528;52.102;5.242;2023-03-25T08:03:42;99719.0;;;14.47;63.66
32452;BME280;45528;52.102;5.242;2023-03-25T08:05:18;99709.0;;;14.54;63.45
32452;BME280;45528;52.102;5.242;2023-03-25T08:06:54;99705.0;;;14.84;62.7
32452;BME280;45528;52.102;5.242;2023-03-25T08:10:07;99710.0;;;14.66;62.92
32452;BME280;45528;52.102;5.242;2023-03-25T08:11:43;99716.0;;;14.73;62.82
32452;BME280;45528;52.102;5.242;2023-03-25T08:13:19;99714.0;;;14.67;62.86
32452;BME280;45528;52.102;5.242;2023-03-25T08:16:32;99720.0;;;14.82;62.16
32452;BME280;45528;52.102;5.242;2023-03-25T08:18:08;99720.0;;;15.27;61.12
32452;BME280;45528;52.102;5.242;2023-03-25T08:19:44;99723.0;;;15.04;61.33
32452;BME280;45528;52.102;5.242;2023-03-25T08:22:56;99725.0;;;14.81;62.36
32452;BME280;45528;52.102;5.242;2023-03-25T08:24:32;99728.0;;;14.75;62.95
32452;BME280;45528;52.102;5.242;2023-03-25T08:26:08;99731.0;;;14.78;62.35
32452;BME280;45528;52.102;5.242;2023-03-25T08:27:45;99734.0;;;14.43;63.02
32452;BME280;45528;52.102;5.242;2023-03-25T08:30:57;99738.0;;;14.6;63.2
32452;BME280;45528;52.102;5.242;2023-03-25T08:32:34;99740.0;;;14.85;62.63
32452;BME280;45528;52.102;5.242;2023-03-25T08:34:12;99740.0;;;14.89;62.26
32452;BME280;45528;52.102;5.242;2023-03-25T08:37:24;99741.0;;;14.98;62.36
32452;BME280;45528;52.102;5.242;2023-03-25T08:39:01;99740.0;;;15.17;62.5
32452;BME280;45528;52.102;5.242;2023-03-25T08:40:37;99740.0;;;15.12;62.82
32452;BME280;45528;52.102;5.242;2023-03-25T08:47:07;99733.0;;;15.59;62.62
32452;BME280;45528;52.102;5.242;2023-03-25T08:48:43;99730.0;;;15.6;62.24
32452;BME280;45528;52.102;5.242;2023-03-25T08:51:56;99734.0;;;15.26;61.98
32452;BME280;45528;52.102;5.242;2023-03-25T08:53:33;99743.0;;;15.29;61.76
32452;BME280;45528;52.102;5.242;2023-03-25T08:55:09;99744.0;;;15.32;61.8
32452;BME280;45528;52.102;5.242;2023-03-25T08:58:23;99740.0;;;15.17;61.65
32452;BME280;45528;52.102;5.242;2023-03-25T08:59:59;99738.0;;;15.44;61.33
32452;BME280;45528;52.102;5.242;2023-03-25T09:01:35;99738.0;;;15.34;61.33
32452;BME280;45528;52.102;5.242;2023-03-25T09:03:12;99745.0;;;15.37;60.95
32452;BME280;45528;52.102;5.242;2023-03-25T09:06:24;99735.0;;;15.33;60.93
32452;BME280;45528;52.102;5.242;2023-03-25T09:08:00;99745.0;;;15.8;60.35
32452;BME280;45528;52.102;5.242;2023-03-25T09:09:36;99733.0;;;15.67;59.94
32452;BME280;45528;52.102;5.242;2023-03-25T09:12:48;99743.0;;;15.18;60.16
32452;BME280;45528;52.102;5.242;2023-03-25T09:14:25;99757.0;;;15.6;59.92
32452;BME280;45528;52.102;5.242;2023-03-25T09:16:01;99745.0;;;15.54;60.52
32452;BME280;45528;52.102;5.242;2023-03-25T09:19:14;99752.0;;;15.64;60.56
32452;BME280;45528;52.102;5.242;2023-03-25T09:20:50;99752.0;;;15.54;61.06
32452;BME280;45528;52.102;5.242;2023-03-25T09:22:27;99743.0;;;15.35;62.3
32452;BME280;45528;52.102;5.242;2023-03-25T09:24:03;99748.0;;;15.7;61.89
32452;BME280;45528;52.102;5.242;2023-03-25T09:27:16;99750.0;;;15.6;62.06
32452;BME280;45528;52.102;5.242;2023-03-25T09:28:52;99737.0;;;15.75;61.22
32452;BME280;45528;52.102;5.242;2023-03-25T09:30:28;99739.0;;;15.68;61.37
32452;BME280;45528;52.102;5.242;2023-03-25T09:33:40;99747.0;;;15.71;60.85
32452;BME280;45528;52.102;5.242;2023-03-25T09:35:17;99753.0;;;16.32;59.95
32452;BME280;45528;52.102;5.242;2023-03-25T09:36:54;99747.0;;;16.36;59.36
32452;BME280;45528;52.102;5.242;2023-03-25T09:40:10;99756.0;;;15.96;58.77
32452;BME280;45528;52.102;5.242;2023-03-25T09:42:06;99747.0;;;15.49;58.83
32452;BME280;45528;52.102;5.242;2023-03-25T09:44:13;99756.0;;;16.29;58.36
32452;BME280;45528;52.102;5.242;2023-03-25T09:45:54;99763.0;;;16.34;58.01
32452;BME280;45528;52.102;5.242;2023-03-25T09:47:32;99755.0;;;16.27;58.18
32452;BME280;45528;52.102;5.242;2023-03-25T09:49:14;99768.0;;;16.36;57.46
32452;BME280;45528;52.102;5.242;2023-03-25T09:52:33;99765.0;;;16.03;58.13
32452;BME280;45528;52.102;5.242;2023-03-25T09:54:17;99767.0;;;16.18;57.82
32452;BME280;45528;52.102;5.242;2023-03-25T09:55:58;99771.0;;;16.32;57.49
32452;BME280;45528;52.102;5.242;2023-03-25T09:57:40;99775.0;;;16.31;56.96
32452;BME280;45528;52.102;5.242;2023-03-25T10:01:06;99769.0;;;16.02;56.76
32452;BME280;45528;52.102;5.242;2023-03-25T10:03:00;99771.0;;;16.0;56.81
32452;BME280;45528;52.102;5.242;2023-03-25T10:04:58;99768.0;;;15.77;58.25
32452;BME280;45528;52.102;5.242;2023-03-25T10:06:42;99763.0;;;16.2;57.72
32452;BME280;45528;52.102;5.242;2023-03-25T10:08:33;99770.0;;;16.21;57.44
32452;BME280;45528;52.102;5.242;2023-03-25T10:10:24;99780.0;;;16.36;58.13
32452;BME280;45528;52.102;5.242;2023-03-25T10:13:54;99752.0;;;16.45;57.56
32452;BME280;45528;52.102;5.242;2023-03-25T10:15:37;99780.0;;;16.55;57.03
32452;BME280;45528;52.102;5.242;2023-03-25T10:17:25;99781.0;;;16.39;56.56
32452;BME280;45528;52.102;5.242;2023-03-25T10:19:20;99782.0;;;16.27;56.54
32452;BME280;45528;52.102;5.242;2023-03-25T10:21:05;99784.0;;;16.63;55.21
32452;BME280;45528;52.102;5.242;2023-03-25T10:22:58;99785.0;;;16.7;54.9
32452;BME280;45528;52.102;5.242;2023-03-25T10:26:25;99789.0;;;16.11;55.01
32452;BME280;45528;52.102;5.242;2023-03-25T10:28:06;99770.0;;;15.85;55.08
32452;BME280;45528;52.102;5.242;2023-03-25T10:29:50;99788.0;;;16.34;53.7
32452;BME280;45528;52.102;5.242;2023-03-25T10:31:33;99787.0;;;16.23;53.9
32452;BME280;45528;52.102;5.242;2023-03-25T10:33:15;99784.0;;;16.13;53.78
32452;BME280;45528;52.102;5.242;2023-03-25T10:36:43;99791.0;;;16.75;53.41
32452;BME280;45528;52.102;5.242;2023-03-25T10:38:23;99799.0;;;17.21;52.22
32452;BME280;45528;52.102;5.242;2023-03-25T10:40:12;99791.0;;;16.57;52.33
32452;BME280;45528;52.102;5.242;2023-03-25T10:41:54;99784.0;;;17.02;52.67
32452;BME280;45528;52.102;5.242;2023-03-25T10:43:34;99790.0;;;16.8;52.57
32452;BME280;45528;52.102;5.242;2023-03-25T10:46:55;99794.0;;;16.63;53.35
32452;BME280;45528;52.102;5.242;2023-03-25T10:48:33;99787.0;;;16.72;52.49
32452;BME280;45528;52.102;5.242;2023-03-25T10:53:28;99802.0;;;16.91;53.13
32452;BME280;45528;52.102;5.242;2023-03-25T10:55:22;99801.0;;;16.4;52.25
32452;BME280;45528;52.102;5.242;2023-03-25T10:57:01;99810.0;;;16.59;52.68
32452;BME280;45528;52.102;5.242;2023-03-25T10:58:41;99811.0;;;16.9;52.75
32452;BME280;45528;52.102;5.242;2023-03-25T11:00:19;99815.0;;;16.71;52.72
32452;BME280;45528;52.102;5.242;2023-03-25T11:03:35;99818.0;;;16.98;52.14
32452;BME280;45528;52.102;5.242;2023-03-25T11:05:16;99814.0;;;16.7;52.41
32452;BME280;45528;52.102;5.242;2023-03-25T11:06:56;99819.0;;;17.29;51.41
32452;BME280;45528;52.102;5.242;2023-03-25T11:10:16;99815.0;;;16.75;51.25
32452;BME280;45528;52.102;5.242;2023-03-25T11:11:53;99821.0;;;16.64;51.78
32452;BME280;45528;52.102;5.242;2023-03-25T11:13:29;99818.0;;;16.46;52.49
32452;BME280;45528;52.102;5.242;2023-03-25T11:15:11;99802.0;;;16.45;52.23
32452;BME280;45528;52.102;5.242;2023-03-25T11:18:33;99828.0;;;16.27;52.53
32452;BME280;45528;52.102;5.242;2023-03-25T11:20:18;99828.0;;;16.7;52.37
32452;BME280;45528;52.102;5.242;2023-03-25T11:21:58;99830.0;;;16.73;51.66
32452;BME280;45528;52.102;5.242;2023-03-25T11:23:42;99826.0;;;16.7;51.69
32452;BME280;45528;52.102;5.242;2023-03-25T11:25:23;99830.0;;;17.32;51.3